Time;durP1;ratioP1;P1;durP2;ratioP2;P2;SDS_P1;SDS_P2;PMS_P1;PMS_P2;Temp;Humidity;BMP_temperature;BMP_pressure;BME280_temperature;BME280_humidity;BME280_pressure;Samples;Min_cycle;Max_cycle;Signal;HPM_P1;HPM_P2
2021/06/23 00:02:21;;;;;;;;;44.75;32.75;;;;;17.13;62.67;101547.78;4995144;27;45417;-81
2021/06/23 00:04:47;;;;;;;;;35.25;31.25;;;;;17.22;62.48;101539.31;4995206;27;45565;-81
2021/06/23 00:07:13;;;;;;;;;34.75;32.50;;;;;17.29;62.69;101545.59;4994863;27;46004;-80
2021/06/23 00:09:39;;;;;;;;;32.00;30.75;;;;;17.36;62.58;101537.09;4995258;28;45249;-81
2021/06/23 00:12:05;;;;;;;;;31.00;29.50;;;;;17.33;62.15;101537.00;4994731;28;45345;-81
2021/06/23 00:14:31;;;;;;;;;39.75;33.25;;;;;17.28;62.27;101535.97;4994836;27;45358;-80
2021/06/23 00:16:57;;;;;;;;;38.00;32.00;;;;;17.14;62.63;101527.72;4994656;28;45384;-80
2021/06/23 00:19:23;;;;;;;;;34.75;31.25;;;;;17.15;62.88;101535.63;4994946;28;45359;-81
2021/06/23 00:21:49;;;;;;;;;32.00;29.25;;;;;17.11;62.45;101543.34;4994758;27;45393;-81
2021/06/23 00:24:15;;;;;;;;;38.00;32.25;;;;;17.10;62.88;101545.06;4995451;28;45532;-80
2021/06/23 00:26:40;;;;;;;;;31.50;29.00;;;;;17.17;63.00;101538.28;4994795;28;45372;-81
2021/06/23 00:29:06;;;;;;;;;31.75;28.50;;;;;17.18;62.58;101542.69;4994560;28;45572;-81
2021/06/23 00:31:33;;;;;;;;;35.00;30.00;;;;;17.21;62.74;101541.88;4994906;28;45420;-81
2021/06/23 00:34:02;;;;;;;;;33.25;30.00;;;;;17.22;62.54;101538.41;4994706;28;45486;-81
2021/06/23 00:36:28;;;;;;;;;33.50;30.25;;;;;17.13;62.43;101545.16;4994424;27;45373;-81
2021/06/23 00:38:53;;;;;;;;;33.00;28.75;;;;;17.18;62.53;101540.94;4994513;27;45324;-81
2021/06/23 00:41:20;;;;;;;;;33.25;29.25;;;;;17.13;62.49;101546.88;4994593;28;45335;-81
2021/06/23 00:43:47;;;;;;;;;26.25;25.00;;;;;17.17;62.66;101551.38;4977024;28;45410;-81
2021/06/23 00:46:13;;;;;;;;;29.75;27.25;;;;;17.17;62.62;101539.16;4994962;28;46163;-79
2021/06/23 00:48:39;;;;;;;;;27.25;25.00;;;;;17.17;62.24;101531.31;4994814;28;45871;-81
2021/06/23 00:51:06;;;;;;;;;37.00;30.50;;;;;17.09;62.78;101547.66;4994388;27;45771;-81
2021/06/23 00:53:32;;;;;;;;;29.25;29.25;;;;;16.99;63.17;101547.38;4994807;28;45600;-81
2021/06/23 00:55:59;;;;;;;;;35.00;30.00;;;;;17.04;62.87;101547.50;4994308;28;45268;-80
2021/06/23 00:58:25;;;;;;;;;32.50;29.00;;;;;17.06;62.99;101544.94;4994305;28;45456;-80
2021/06/23 01:00:53;;;;;;;;;34.25;29.50;;;;;17.07;62.44;101539.72;4994404;28;45409;-80
2021/06/23 01:03:20;;;;;;;;;28.50;26.50;;;;;17.16;62.33;101542.66;4995141;28;45609;-80
2021/06/23 01:05:46;;;;;;;;;29.75;28.50;;;;;17.21;62.16;101534.03;4994784;28;45644;-80
2021/06/23 01:08:12;;;;;;;;;38.25;32.50;;;;;17.20;62.16;101546.25;4978473;28;45519;-81
2021/06/23 01:10:38;;;;;;;;;32.75;30.75;;;;;17.20;62.21;101546.25;4994670;28;45488;-81
2021/06/23 01:13:36;;;;;;;;;34.25;31.50;;;;;17.20;62.08;101547.94;4994549;28;45597;-81
2021/06/23 01:16:08;;;;;;;;;34.75;32.25;;;;;17.11;62.44;101551.22;4995170;28;46657;-80
2021/06/23 01:18:36;;;;;;;;;29.00;28.25;;;;;17.13;62.34;101546.88;4978663;28;45335;-80
2021/06/23 01:21:03;;;;;;;;;38.75;31.75;;;;;17.10;62.48;101547.69;5000060;27;45424;-81
2021/06/23 01:23:29;;;;;;;;;34.50;31.75;;;;;17.07;62.74;101549.31;5001119;28;45377;-80
2021/06/23 01:25:55;;;;;;;;;30.50;28.50;;;;;17.13;62.77;101549.50;4997393;27;46210;-80
2021/06/23 01:28:21;;;;;;;;;32.00;27.50;;;;;17.05;62.60;101543.16;4995699;28;45337;-81
2021/06/23 01:30:47;;;;;;;;;32.00;30.00;;;;;17.02;62.48;101550.06;4993967;27;45354;-81
2021/06/23 01:33:13;;;;;;;;;37.25;31.00;;;;;16.95;62.93;101552.47;4994495;28;45474;-79
2021/06/23 01:35:39;;;;;;;;;39.00;31.25;;;;;16.91;62.65;101535.75;4994154;28;45473;-82
2021/06/23 01:38:05;;;;;;;;;44.25;33.25;;;;;16.90;62.93;101544.41;4993729;27;45428;-82
2021/06/23 01:40:32;;;;;;;;;34.75;29.50;;;;;16.93;62.72;101541.03;4994166;27;45422;-81
2021/06/23 01:42:58;;;;;;;;;32.25;30.00;;;;;16.98;62.96;101544.69;4995097;27;45439;-82
2021/06/23 01:45:25;;;;;;;;;37.25;31.25;;;;;16.99;62.67;101552.63;4993557;28;46111;-80
2021/06/23 01:47:51;;;;;;;;;32.00;30.00;;;;;16.98;63.00;101545.59;4993765;28;45335;-80
2021/06/23 01:50:16;;;;;;;;;34.25;31.50;;;;;16.96;62.98;101547.28;4993925;28;45413;-80
2021/06/23 01:52:42;;;;;;;;;37.75;31.75;;;;;16.97;62.69;101538.59;4994256;28;45434;-80
2021/06/23 01:55:26;;;;;;;;;32.25;30.50;;;;;16.96;62.95;101542.03;4993718;28;46686;-80
2021/06/23 01:58:07;;;;;;;;;31.50;27.00;;;;;16.95;62.79;101540.28;4993376;28;45991;-80
2021/06/23 02:00:41;;;;;;;;;35.25;29.50;;;;;16.89;63.51;101552.22;4993840;28;45316;-80
2021/06/23 02:03:48;;;;;;;;;34.00;31.00;;;;;16.94;62.62;101545.47;4993748;28;45407;-80
2021/06/23 02:06:42;;;;;;;;;30.75;29.25;;;;;16.95;63.12;101548.13;4993085;28;46393;-79
2021/06/23 02:09:19;;;;;;;;;38.00;32.00;;;;;16.92;63.17;101549.72;4993736;28;45351;-80
2021/06/23 02:11:47;;;;;;;;;35.25;30.50;;;;;16.87;63.22;101537.38;4975565;28;45248;-80
2021/06/23 02:14:34;;;;;;;;;32.00;30.25;;;;;16.90;63.28;101543.56;4993476;27;45346;-78
2021/06/23 02:17:02;;;;;;;;;34.50;30.00;;;;;16.89;63.29;101553.13;4993351;28;46247;-81
2021/06/23 02:19:30;;;;;;;;;32.00;30.00;;;;;16.91;63.31;101538.34;4993625;27;45426;-80
2021/06/23 02:21:56;;;;;;;;;29.75;26.00;;;;;16.91;62.87;101548.81;4994025;28;45409;-81
2021/06/23 02:24:22;;;;;;;;;29.00;25.25;;;;;16.83;63.30;101535.53;4993801;28;45193;-80
2021/06/23 02:26:48;;;;;;;;;34.50;27.00;;;;;16.82;63.36;101540.69;4992794;28;46562;-80
2021/06/23 02:29:14;;;;;;;;;31.00;27.25;;;;;16.87;63.28;101544.34;4993382;28;45342;-80
2021/06/23 02:31:40;;;;;;;;;29.00;24.75;;;;;16.83;63.66;101540.75;4993572;28;45481;-78
2021/06/23 02:34:14;;;;;;;;;31.25;27.00;;;;;16.86;63.65;101540.84;4993168;28;45392;-80
2021/06/23 02:36:39;;;;;;;;;25.75;25.50;;;;;16.82;63.43;101536.38;4994191;28;45473;-80
2021/06/23 02:39:07;;;;;;;;;27.50;26.75;;;;;16.83;63.48;101542.47;4996045;28;45424;-81
2021/06/23 02:41:34;;;;;;;;;34.25;29.00;;;;;16.83;63.94;101539.84;4996364;27;45418;-81
2021/06/23 02:44:00;;;;;;;;;23.25;21.25;;;;;16.82;63.23;101538.97;4996119;27;45256;-81
2021/06/23 02:46:26;;;;;;;;;30.25;24.50;;;;;16.84;63.66;101546.88;4996115;27;45467;-81
2021/06/23 02:48:53;;;;;;;;;26.25;25.75;;;;;16.79;63.88;101544.09;4996070;27;46570;-80
2021/06/23 02:51:21;;;;;;;;;26.50;25.50;;;;;16.78;63.76;101549.31;5001249;28;45365;-80
2021/06/23 02:53:49;;;;;;;;;25.50;24.75;;;;;16.78;63.88;101539.72;5002877;28;45319;-80
2021/06/23 02:56:16;;;;;;;;;25.75;22.50;;;;;16.75;64.04;101551.81;5003690;27;45517;-82
2021/06/23 02:58:43;;;;;;;;;23.50;22.25;;;;;16.78;63.92;101544.94;5003425;27;45837;-80
2021/06/23 03:01:13;;;;;;;;;29.00;26.25;;;;;16.80;63.94;101552.81;5004842;28;44631;-81
2021/06/23 03:03:41;;;;;;;;;24.50;22.25;;;;;16.79;64.02;101548.47;4986635;28;45309;-82
2021/06/23 03:06:07;;;;;;;;;23.25;21.00;;;;;16.84;63.60;101546.88;4999532;27;45457;-81
2021/06/23 03:08:34;;;;;;;;;27.50;22.00;;;;;16.78;64.22;101547.56;4980652;28;45472;-81
2021/06/23 03:11:00;;;;;;;;;26.25;20.50;;;;;16.80;63.96;101556.34;4997014;27;45311;-81
2021/06/23 03:13:25;;;;;;;;;27.50;23.25;;;;;16.78;63.85;101552.78;4997625;28;45423;-80
2021/06/23 03:15:51;;;;;;;;;21.75;20.75;;;;;16.81;64.30;101546.75;4995296;27;46003;-81
2021/06/23 03:18:17;;;;;;;;;25.00;22.50;;;;;16.80;63.93;101545.88;4997800;27;45410;-81
2021/06/23 03:20:43;;;;;;;;;28.50;24.00;;;;;16.79;63.75;101545.84;5006808;28;45460;-77
2021/06/23 03:23:08;;;;;;;;;26.00;22.75;;;;;16.79;63.89;101545.84;5007020;28;45357;-81
2021/06/23 03:25:34;;;;;;;;;25.25;24.25;;;;;16.79;64.13;101551.97;4999303;28;46423;-80
2021/06/23 03:28:01;;;;;;;;;25.75;22.50;;;;;16.84;64.12;101553.00;4996883;28;45350;-80
2021/06/23 03:30:27;;;;;;;;;25.00;22.50;;;;;16.77;63.86;101548.41;4995938;28;45382;-80
2021/06/23 03:32:54;;;;;;;;;28.25;26.00;;;;;16.78;64.17;101554.53;4995533;27;45319;-80
2021/06/23 03:35:21;;;;;;;;;29.75;25.25;;;;;16.77;64.00;101551.00;4995211;27;46462;-81
2021/06/23 03:37:48;;;;;;;;;27.00;25.50;;;;;16.80;63.98;101550.22;4994974;28;45349;-80
2021/06/23 03:40:13;;;;;;;;;32.50;27.75;;;;;16.81;63.72;101552.00;4978454;28;45424;-80
2021/06/23 03:42:39;;;;;;;;;27.50;27.00;;;;;16.77;64.10;101545.78;4978503;28;45445;-81
2021/06/23 03:45:06;;;;;;;;;27.75;24.00;;;;;16.69;64.34;101542.03;4995032;27;46098;-80
2021/06/23 03:47:31;;;;;;;;;20.75;19.75;;;;;16.64;64.20;101547.13;4994989;28;45417;-81
2021/06/23 03:49:57;;;;;;;;;26.25;22.75;;;;;16.69;64.38;101556.00;4995110;28;45245;-80
2021/06/23 03:52:22;;;;;;;;;32.25;28.00;;;;;16.63;64.27;101549.72;4995582;28;45323;-81
2021/06/23 03:54:48;;;;;;;;;23.50;23.50;;;;;16.59;64.33;101548.69;4994689;28;46000;-80
2021/06/23 03:57:14;;;;;;;;;33.00;29.75;;;;;16.58;64.76;101557.38;4995076;27;45331;-80
2021/06/23 03:59:39;;;;;;;;;28.50;27.00;;;;;16.52;65.07;101555.47;4995413;28;45469;-81
2021/06/23 04:02:06;;;;;;;;;34.25;27.00;;;;;16.60;64.46;101558.31;4995091;28;45409;-80
2021/06/23 04:04:32;;;;;;;;;26.00;22.75;;;;;16.59;65.13;101559.16;4994787;28;45404;-80
2021/06/23 04:06:57;;;;;;;;;28.75;27.00;;;;;16.55;64.54;101559.91;4994555;27;45454;-80
2021/06/23 04:09:23;;;;;;;;;28.25;24.25;;;;;16.60;64.40;101558.31;4994987;28;45340;-80
2021/06/23 04:11:48;;;;;;;;;29.00;23.50;;;;;16.67;64.66;101560.31;4995097;28;45440;-81
2021/06/23 04:14:14;;;;;;;;;27.25;22.25;;;;;16.79;64.20;101564.16;4994636;27;46204;-80
2021/06/23 04:16:40;;;;;;;;;30.00;27.25;;;;;16.83;64.54;101566.00;4995156;28;45370;-81
2021/06/23 04:19:05;;;;;;;;;30.75;25.25;;;;;16.81;64.00;101567.69;4995371;28;45239;-81
2021/06/23 04:21:31;;;;;;;;;29.75;24.75;;;;;16.88;64.17;101569.66;4995629;28;45179;-81
2021/06/23 04:23:57;;;;;;;;;27.00;25.25;;;;;16.91;63.88;101574.09;4994508;28;46249;-81
2021/06/23 04:26:22;;;;;;;;;29.00;23.25;;;;;16.94;63.54;101571.63;4994775;28;45678;-81
2021/06/23 04:28:48;;;;;;;;;29.50;25.25;;;;;16.94;63.37;101566.38;4994651;27;45337;-80
2021/06/23 04:31:14;;;;;;;;;24.75;23.00;;;;;16.97;63.84;101567.38;4995000;28;45637;-81
2021/06/23 04:33:39;;;;;;;;;28.50;25.50;;;;;17.01;63.53;101560.50;4994817;28;45303;-82
2021/06/23 04:36:05;;;;;;;;;27.25;25.75;;;;;16.99;63.42;101567.41;4994199;28;45415;-82
2021/06/23 04:38:30;;;;;;;;;25.00;23.25;;;;;17.00;63.58;101570.09;4994755;28;45417;-81
2021/06/23 04:40:56;;;;;;;;;29.25;26.25;;;;;17.12;62.85;101569.56;4994620;27;45608;-78
2021/06/23 04:43:22;;;;;;;;;29.00;25.25;;;;;17.18;63.03;101572.34;4976664;28;45574;-77
2021/06/23 04:45:47;;;;;;;;;28.75;24.25;;;;;17.20;62.55;101572.41;4994263;28;45338;-80
2021/06/23 04:48:13;;;;;;;;;24.25;22.75;;;;;17.18;62.36;101569.72;4993438;28;45272;-79
2021/06/23 04:50:38;;;;;;;;;32.25;25.50;;;;;17.18;62.56;101569.72;4994991;28;45550;-81
2021/06/23 04:53:04;;;;;;;;;24.50;23.25;;;;;17.23;62.64;101577.72;4994098;27;46087;-80
2021/06/23 04:55:30;;;;;;;;;30.50;27.25;;;;;17.10;62.53;101581.69;4994194;27;45370;-80
2021/06/23 04:57:56;;;;;;;;;24.75;21.75;;;;;17.11;62.71;101580.00;4977623;28;45426;-81
2021/06/23 05:00:21;;;;;;;;;26.00;23.00;;;;;17.19;62.78;101575.88;4994481;28;45261;-80
2021/06/23 05:02:47;;;;;;;;;27.50;24.50;;;;;17.19;62.52;101581.09;4994846;27;46269;-80
2021/06/23 05:05:13;;;;;;;;;24.75;22.25;;;;;17.22;62.36;101590.75;4994289;28;45224;-81
2021/06/23 05:07:38;;;;;;;;;27.25;24.75;;;;;17.24;62.50;101594.31;4994928;27;45461;-81
2021/06/23 05:10:05;;;;;;;;;28.25;25.25;;;;;17.25;62.41;101596.09;4995229;28;45568;-79
2021/06/23 05:12:31;;;;;;;;;24.50;22.00;;;;;17.29;62.67;101587.47;4994124;28;46366;-81
2021/06/23 05:14:57;;;;;;;;;27.00;25.50;;;;;17.24;62.78;101591.69;4976478;28;45492;-81
2021/06/23 05:17:23;;;;;;;;;26.50;23.25;;;;;17.22;62.70;101598.63;4994425;28;45470;-80
2021/06/23 05:19:49;;;;;;;;;26.75;23.50;;;;;17.25;62.73;101596.97;4994652;28;45336;-81
2021/06/23 05:22:15;;;;;;;;;27.50;25.00;;;;;17.25;62.55;101596.09;4993949;28;45263;-81
2021/06/23 05:24:42;;;;;;;;;25.75;21.25;;;;;17.29;62.51;101604.09;4996691;28;45323;-81
2021/06/23 05:27:09;;;;;;;;;28.50;23.25;;;;;17.32;62.49;101600.66;4995771;28;45549;-80
2021/06/23 05:29:35;;;;;;;;;27.50;26.50;;;;;17.35;62.18;101608.63;4993770;27;45305;-81
2021/06/23 05:32:01;;;;;;;;;27.75;23.75;;;;;17.35;61.97;101611.22;4993832;28;46524;-81
2021/06/23 05:34:28;;;;;;;;;27.75;25.50;;;;;17.38;62.10;101613.03;4993044;28;45336;-80
2021/06/23 05:36:58;;;;;;;;;24.75;24.00;;;;;17.33;62.30;101612.91;4973823;28;45443;-80
2021/06/23 05:39:25;;;;;;;;;28.25;25.50;;;;;17.32;62.10;101621.59;4994513;28;45492;-79
2021/06/23 05:41:51;;;;;;;;;25.00;22.50;;;;;17.33;62.03;101615.53;4992837;27;46173;-80
2021/06/23 05:44:17;;;;;;;;;25.75;24.75;;;;;17.33;62.01;101621.63;4990154;28;45380;-80
2021/06/23 05:46:43;;;;;;;;;26.00;23.50;;;;;17.38;61.97;101613.03;4993230;28;45410;-80
2021/06/23 05:49:09;;;;;;;;;28.00;26.25;;;;;17.34;62.40;101619.91;4992873;28;45264;-79
2021/06/23 05:51:35;;;;;;;;;31.00;26.50;;;;;17.27;62.22;101618.84;4992891;28;46295;-79
2021/06/23 05:54:00;;;;;;;;;28.50;24.75;;;;;17.11;62.68;101614.88;4993469;28;45393;-81
2021/06/23 05:56:26;;;;;;;;;26.00;24.00;;;;;16.99;62.64;101619.72;4993637;28;45299;-79
2021/06/23 05:58:52;;;;;;;;;27.00;25.75;;;;;17.02;62.87;101623.31;4994068;27;45208;-78
2021/06/23 06:01:18;;;;;;;;;30.00;26.75;;;;;17.07;62.63;101627.81;4976024;28;47731;-78
2021/06/23 06:03:43;;;;;;;;;33.50;27.25;;;;;16.98;62.89;101623.16;4995483;28;45310;-78
2021/06/23 06:06:09;;;;;;;;;31.00;28.75;;;;;16.85;63.72;101632.34;4994152;28;45307;-84
2021/06/23 06:08:35;;;;;;;;;30.50;29.50;;;;;16.81;63.52;101630.44;4992937;28;45578;-85
2021/06/23 06:11:00;;;;;;;;;23.75;21.75;;;;;16.82;63.25;101632.22;4990969;28;46409;-80
2021/06/23 06:13:28;;;;;;;;;30.25;26.00;;;;;16.81;63.33;101636.59;4991833;28;45386;-79
2021/06/23 06:15:53;;;;;;;;;32.25;29.50;;;;;16.77;63.90;101632.09;4987355;28;46872;-80
2021/06/23 06:18:22;;;;;;;;;33.25;28.75;;;;;16.84;63.52;101641.91;4993393;27;45403;-75
2021/06/23 06:20:48;;;;;;;;;26.75;25.75;;;;;16.88;63.43;101642.91;4995617;28;45549;-82
2021/06/23 06:23:14;;;;;;;;;29.00;25.50;;;;;16.85;63.58;101645.41;4993477;28;45330;-77
2021/06/23 06:25:39;;;;;;;;;33.25;30.00;;;;;16.94;63.47;101643.13;4990712;28;45305;-76
2021/06/23 06:28:05;;;;;;;;;30.75;30.00;;;;;16.85;63.34;101650.66;4992669;28;45512;-76
2021/06/23 06:30:31;;;;;;;;;28.50;25.00;;;;;16.84;63.28;101651.47;4992600;28;45615;-75
2021/06/23 06:32:57;;;;;;;;;29.00;25.50;;;;;16.92;63.18;101649.13;4992490;28;45273;-74
2021/06/23 06:35:23;;;;;;;;;37.25;31.00;;;;;16.96;63.07;101656.25;4992431;28;45270;-75
2021/06/23 06:37:48;;;;;;;;;26.50;26.00;;;;;16.96;63.05;101657.16;4992705;27;45410;-75
2021/06/23 06:40:15;;;;;;;;;28.25;26.00;;;;;17.00;62.79;101661.66;4992289;28;45509;-76
2021/06/23 06:42:40;;;;;;;;;30.25;28.00;;;;;17.01;62.80;101665.13;4992700;28;45288;-76
2021/06/23 06:45:07;;;;;;;;;28.50;25.00;;;;;17.03;62.53;101660.84;4991949;28;45260;-76
2021/06/23 06:47:33;;;;;;;;;29.50;25.75;;;;;16.97;62.84;101664.16;4993308;28;45378;-75
2021/06/23 06:49:59;;;;;;;;;29.00;24.75;;;;;16.99;62.43;101661.56;4992720;28;46391;-75
2021/06/23 06:52:25;;;;;;;;;29.25;26.50;;;;;17.00;62.71;101669.50;4992283;28;45361;-75
2021/06/23 06:54:51;;;;;;;;;29.50;26.25;;;;;17.02;62.55;101664.31;4992528;27;45438;-78
2021/06/23 06:57:16;;;;;;;;;28.25;27.00;;;;;16.97;62.74;101665.88;4992680;28;45272;-74
2021/06/23 06:59:42;;;;;;;;;28.00;24.25;;;;;16.98;62.67;101667.66;4993348;28;46159;-76
2021/06/23 07:02:07;;;;;;;;;28.50;24.25;;;;;16.95;62.63;101673.69;4991742;28;45485;-75
2021/06/23 07:04:33;;;;;;;;;25.75;24.50;;;;;16.95;62.56;101672.81;4993084;28;45345;-74
2021/06/23 07:06:59;;;;;;;;;31.25;23.75;;;;;17.02;62.72;101673.03;4993037;28;45517;-75
2021/06/23 07:09:25;;;;;;;;;26.50;24.25;;;;;16.95;62.45;101672.81;4993643;28;46370;-79
2021/06/23 07:11:51;;;;;;;;;28.75;25.00;;;;;17.04;62.33;101673.09;4981823;27;45425;-79
2021/06/23 07:14:19;;;;;;;;;23.25;22.25;;;;;17.09;62.21;101674.09;5031948;27;45442;-78
2021/06/23 07:16:46;;;;;;;;;24.00;23.00;;;;;17.15;62.32;101682.19;4993387;28;45283;-78
2021/06/23 07:19:12;;;;;;;;;22.00;20.50;;;;;17.17;61.75;101683.09;4991208;28;45390;-78
2021/06/23 07:21:38;;;;;;;;;20.75;20.50;;;;;17.23;61.78;101685.00;4992553;28;45402;-79
2021/06/23 07:24:04;;;;;;;;;29.50;25.75;;;;;17.10;61.77;101682.88;4976980;28;45465;-80
2021/06/23 07:26:30;;;;;;;;;26.50;24.75;;;;;16.97;62.12;101682.47;4995597;27;45422;-77
2021/06/23 07:28:58;;;;;;;;;23.25;22.25;;;;;17.00;62.23;101679.97;4995400;27;46116;-76
2021/06/23 07:34:21;;;;;;;;;25.75;23.25;;;;;17.01;61.95;101686.06;4992479;28;45589;-77
2021/06/23 07:36:50;;;;;;;;;26.25;22.75;;;;;17.10;61.61;101686.34;4995175;28;46001;-75
2021/06/23 07:39:18;;;;;;;;;25.25;20.00;;;;;17.02;61.75;101690.47;4977344;28;47111;-77
2021/06/23 07:41:47;;;;;;;;;31.25;24.00;;;;;17.00;61.86;101699.97;4995813;28;45880;-78
2021/06/23 07:44:15;;;;;;;;;24.00;22.50;;;;;17.04;61.55;101695.72;4977237;28;45364;-76
2021/06/23 07:46:47;;;;;;;;;25.00;22.75;;;;;17.15;61.39;101702.19;4994992;28;45625;-75
2021/06/23 07:49:14;;;;;;;;;27.50;23.75;;;;;17.18;61.35;101705.81;4994719;28;46458;-74
2021/06/23 07:52:04;;;;;;;;;22.00;20.75;;;;;17.23;61.24;101698.09;4994088;27;45908;-76
2021/06/23 08:10:30;;;;;;;;;27.25;23.75;;;;;17.34;61.52;101703.69;4995016;28;45315;-76
2021/06/23 08:12:57;;;;;;;;;29.75;28.75;;;;;17.24;60.93;101699.88;4994787;27;45516;-78
2021/06/23 08:15:24;;;;;;;;;28.00;23.50;;;;;17.25;61.08;101701.66;4977399;28;45410;-77
2021/06/23 08:17:50;;;;;;;;;30.00;26.75;;;;;17.40;60.96;101698.63;4995263;28;45332;-76
2021/06/23 08:20:15;;;;;;;;;27.25;23.25;;;;;17.50;60.32;101697.19;4994550;27;46666;-76
2021/06/23 08:22:41;;;;;;;;;30.00;25.75;;;;;17.54;60.79;101704.31;4994376;27;45196;-77
2021/06/23 08:25:07;;;;;;;;;23.75;19.75;;;;;17.59;60.25;101697.47;4992303;28;45468;-77
2021/06/23 08:27:33;;;;;;;;;23.50;22.25;;;;;17.64;60.06;101702.84;4983864;28;45597;-76
2021/06/23 08:29:58;;;;;;;;;24.25;22.75;;;;;17.59;60.11;101699.22;4994380;27;45757;-75
2021/06/23 08:32:24;;;;;;;;;26.00;23.50;;;;;17.52;59.99;101698.13;4993744;28;45667;-76
2021/06/23 08:34:50;;;;;;;;;26.25;22.75;;;;;17.59;59.54;101694.84;4994749;28;45610;-76
2021/06/23 08:37:16;;;;;;;;;21.00;19.25;;;;;17.63;60.13;101693.19;4976812;28;45402;-77
2021/06/23 08:39:42;;;;;;;;;18.00;17.50;;;;;17.75;59.93;101698.81;4993616;28;45505;-77
2021/06/23 08:42:09;;;;;;;;;22.00;20.50;;;;;17.86;59.62;101699.13;4987701;28;45434;-78
2021/06/23 08:44:35;;;;;;;;;18.75;18.75;;;;;17.90;59.73;101695.75;4994029;27;45912;-77
2021/06/23 08:47:01;;;;;;;;;26.25;21.75;;;;;17.92;59.36;101693.19;4993340;28;45504;-76
2021/06/23 08:49:29;;;;;;;;;21.75;21.00;;;;;17.91;59.62;101694.03;4982108;28;45519;-77
2021/06/23 08:51:56;;;;;;;;;27.00;21.50;;;;;17.87;59.47;101698.25;4994097;27;45305;-79
2021/06/23 08:54:23;;;;;;;;;22.75;20.75;;;;;17.88;59.44;101700.03;4997785;27;45456;-80
2021/06/23 08:56:50;;;;;;;;;23.50;21.25;;;;;17.91;59.49;101697.53;4994382;28;45646;-80
2021/06/23 08:59:15;;;;;;;;;23.75;21.75;;;;;17.87;59.56;101697.38;4975866;28;46300;-78
2021/06/23 09:01:45;;;;;;;;;22.25;20.25;;;;;17.91;59.52;101701.88;4994080;27;45337;-77
2021/06/23 09:04:12;;;;;;;;;21.25;20.00;;;;;17.88;59.28;101693.94;4993563;28;45505;-78
2021/06/23 09:06:53;;;;;;;;;20.75;19.00;;;;;17.87;59.52;101700.00;4994130;28;45656;-78
2021/06/23 09:09:24;;;;;;;;;24.25;22.00;;;;;17.90;59.18;101697.50;4975949;28;47568;-78
2021/06/23 09:11:53;;;;;;;;;24.25;21.25;;;;;17.85;59.53;101702.59;4976510;28;45566;-77
2021/06/23 09:14:20;;;;;;;;;21.75;19.25;;;;;17.84;59.98;101698.19;4993583;27;45378;-77
2021/06/23 09:17:16;;;;;;;;;25.00;19.50;;;;;17.89;59.66;101699.19;4993696;28;45321;-76
2021/06/23 09:19:43;;;;;;;;;23.00;19.00;;;;;18.00;59.30;101706.50;4974927;28;47174;-78
2021/06/23 09:22:31;;;;;;;;;16.75;15.25;;;;;18.04;59.44;101717.13;4993677;28;46000;-78
2021/06/23 09:24:58;;;;;;;;;18.50;17.00;;;;;18.07;58.96;101701.50;4979017;28;45320;-77
2021/06/23 09:27:30;;;;;;;;;24.75;18.75;;;;;17.97;58.99;101704.69;4993956;28;45346;-79
2021/06/23 09:30:31;;;;;;;;;20.00;19.50;;;;;18.01;59.15;101709.19;4993128;27;45473;-76
2021/06/23 09:33:09;;;;;;;;;20.50;19.75;;;;;18.01;58.94;101705.66;4993577;28;45834;-76
2021/06/23 09:35:37;;;;;;;;;22.75;21.75;;;;;17.93;59.63;101702.78;4993727;28;45315;-77
2021/06/23 09:38:03;;;;;;;;;21.75;19.50;;;;;17.94;59.02;101708.09;4993335;27;45342;-78
2021/06/23 09:40:30;;;;;;;;;17.25;15.75;;;;;18.05;59.29;101711.03;4992823;28;46203;-78
2021/06/23 09:43:02;;;;;;;;;17.50;15.00;;;;;18.17;58.71;101709.63;4975887;28;46053;-79
2021/06/23 09:45:30;;;;;;;;;17.25;16.25;;;;;18.22;58.89;101706.28;4975228;28;45388;-78
2021/06/23 09:48:08;;;;;;;;;24.00;18.75;;;;;18.23;58.90;101702.81;4993560;27;45498;-78
2021/06/23 09:50:39;;;;;;;;;18.50;16.75;;;;;18.34;58.35;101710.06;4992974;28;46160;-78
2021/06/23 09:53:12;;;;;;;;;22.75;18.00;;;;;18.32;58.64;101704.81;4993353;28;45894;-79
2021/06/23 09:55:44;;;;;;;;;23.00;22.25;;;;;18.22;59.15;101702.78;4976058;28;45334;-80
2021/06/23 09:58:21;;;;;;;;;19.25;18.00;;;;;18.25;59.22;101706.38;4993985;27;45461;-79
2021/06/23 10:01:16;;;;;;;;;22.75;22.50;;;;;18.30;59.26;101710.88;4975587;28;48091;-76
2021/06/23 10:04:06;;;;;;;;;20.25;18.25;;;;;18.39;58.82;101703.25;4991597;28;45740;-77
2021/06/23 10:06:45;;;;;;;;;18.50;18.50;;;;;18.36;58.56;101698.78;4976277;28;45529;-78
2021/06/23 10:09:25;;;;;;;;;18.50;17.50;;;;;18.45;58.86;101708.63;4993811;28;45370;-78
2021/06/23 10:12:01;;;;;;;;;18.00;15.75;;;;;18.47;58.23;101703.41;4994332;27;45410;-78
2021/06/23 10:14:29;;;;;;;;;26.50;25.00;;;;;18.54;58.48;101698.38;4965738;28;45983;-79
2021/06/23 10:16:57;;;;;;;;;21.25;19.00;;;;;18.53;58.15;101709.72;4982392;28;45476;-77
2021/06/23 10:19:23;;;;;;;;;20.50;17.75;;;;;18.51;58.61;101702.66;4964075;28;45623;-77
2021/06/23 10:21:49;;;;;;;;;23.25;20.75;;;;;18.58;58.45;101701.09;4980430;28;46297;-77
2021/06/23 10:24:16;;;;;;;;;20.25;17.75;;;;;18.67;58.29;101707.47;4993048;28;45239;-77
2021/06/23 10:26:50;;;;;;;;;19.25;19.00;;;;;18.56;58.20;101708.94;4997333;27;46007;-77
2021/06/23 10:29:21;;;;;;;;;20.75;16.25;;;;;18.43;58.25;101701.59;4976641;27;45299;-78
2021/06/23 10:31:47;;;;;;;;;27.00;21.00;;;;;18.38;58.49;101707.59;4991168;28;45442;-75
2021/06/23 10:34:16;;;;;;;;;23.25;20.25;;;;;18.37;58.49;101711.03;4975096;28;45469;-74
2021/06/23 10:36:43;;;;;;;;;22.25;20.25;;;;;18.39;58.60;101705.88;4998244;28;45406;-74
2021/06/23 10:39:09;;;;;;;;;18.50;18.00;;;;;18.42;58.51;101708.53;4993045;28;45481;-75
2021/06/23 10:41:38;;;;;;;;;24.25;22.25;;;;;18.46;58.56;101707.78;4992291;28;46356;-76
2021/06/23 10:44:21;;;;;;;;;22.50;20.25;;;;;18.48;58.96;101713.06;4992236;28;45414;-76
2021/06/23 10:46:55;;;;;;;;;22.75;19.50;;;;;18.46;58.57;101715.66;4974462;28;45377;-76
2021/06/23 10:49:51;;;;;;;;;22.25;17.00;;;;;18.41;58.58;101715.53;4974931;28;45365;-76
2021/06/23 10:52:19;;;;;;;;;20.00;18.25;;;;;18.41;58.87;101723.41;4992514;28;46179;-78
2021/06/23 10:54:46;;;;;;;;;22.50;19.50;;;;;18.40;58.57;101726.88;4975983;28;45256;-80
2021/06/23 10:57:29;;;;;;;;;23.25;20.00;;;;;18.43;58.29;101726.06;4992156;28;45413;-77
2021/06/23 11:00:00;;;;;;;;;23.75;20.75;;;;;18.39;58.53;101727.72;4995125;27;45374;-78
2021/06/23 11:02:36;;;;;;;;;21.00;20.75;;;;;18.47;58.71;101737.50;4995662;28;46346;-76
2021/06/23 11:05:02;;;;;;;;;23.00;19.50;;;;;18.49;58.75;101734.09;4995119;27;45328;-77
2021/06/23 11:07:36;;;;;;;;;17.75;16.25;;;;;18.56;58.42;101736.03;4995677;28;45323;-77
2021/06/23 11:10:17;;;;;;;;;22.25;22.25;;;;;18.61;58.43;101737.91;4995590;27;45628;-75
2021/06/23 11:12:54;;;;;;;;;25.50;18.25;;;;;18.57;58.37;101734.31;4995700;28;46299;-77
2021/06/23 11:15:36;;;;;;;;;17.75;17.75;;;;;18.56;58.42;101733.41;4977138;28;45815;-79
2021/06/23 11:18:33;;;;;;;;;27.75;24.75;;;;;18.61;58.44;101735.28;4994581;28;45448;-78
2021/06/23 11:21:08;;;;;;;;;23.00;22.75;;;;;18.70;58.34;101741.63;4991661;28;45382;-75
2021/06/23 11:23:43;;;;;;;;;21.25;18.75;;;;;18.80;58.19;101750.66;4995828;27;45577;-76
2021/06/23 11:26:29;;;;;;;;;21.75;19.50;;;;;18.87;58.01;101754.31;4995129;28;45525;-75
2021/06/23 11:28:57;;;;;;;;;21.25;19.50;;;;;18.92;57.88;101751.81;4996352;28;45355;-76
2021/06/23 11:31:40;;;;;;;;;25.50;24.00;;;;;18.97;57.73;101753.75;4978406;28;45562;-77
2021/06/23 11:34:06;;;;;;;;;27.00;24.00;;;;;19.00;58.01;101750.28;4996075;28;45432;-75
2021/06/23 11:36:32;;;;;;;;;21.50;21.00;;;;;18.98;58.08;101746.75;4996005;27;45517;-75